sensor_id;sensor_type;location;lat;lon;timestamp;P1;durP1;ratioP1;P2;durP2;ratioP2
13085;SDS011;6609;49.882;8.664;2023-02-22T00:01:10;15.73;;;7.27;;
13085;SDS011;6609;49.882;8.664;2023-02-22T00:03:47;10.97;;;6.90;;
13085;SDS011;6609;49.882;8.664;2023-02-22T00:06:16;8.10;;;6.30;;
13085;SDS011;6609;49.882;8.664;2023-02-22T00:08:45;9.40;;;6.43;;
13085;SDS011;6609;49.882;8.664;2023-02-22T00:11:14;11.73;;;7.53;;
13085;SDS011;6609;49.882;8.664;2023-02-22T00:13:41;11.60;;;5.90;;
13085;SDS011;6609;49.882;8.664;2023-02-22T00:16:11;12.10;;;6.93;;
13085;SDS011;6609;49.882;8.664;2023-02-22T00:18:39;9.93;;;6.00;;
13085;SDS011;6609;49.882;8.664;2023-02-22T00:21:06;11.03;;;6.10;;
13085;SDS011;6609;49.882;8.664;2023-02-22T00:23:34;10.40;;;6.30;;
13085;SDS011;6609;49.882;8.664;2023-02-22T00:26:05;9.83;;;5.80;;
13085;SDS011;6609;49.882;8.664;2023-02-22T00:28:34;11.03;;;6.47;;
13085;SDS011;6609;49.882;8.664;2023-02-22T00:31:01;7.87;;;6.00;;
13085;SDS011;6609;49.882;8.664;2023-02-22T00:33:29;10.10;;;6.50;;
13085;SDS011;6609;49.882;8.664;2023-02-22T00:35:56;11.37;;;6.07;;
13085;SDS011;6609;49.882;8.664;2023-02-22T00:38:23;10.33;;;6.60;;
13085;SDS011;6609;49.882;8.664;2023-02-22T00:40:50;10.07;;;6.27;;
13085;SDS011;6609;49.882;8.664;2023-02-22T00:43:19;11.17;;;5.67;;
13085;SDS011;6609;49.882;8.664;2023-02-22T00:45:46;9.00;;;6.70;;
13085;SDS011;6609;49.882;8.664;2023-02-22T00:48:13;12.03;;;6.23;;
13085;SDS011;6609;49.882;8.664;2023-02-22T00:50:40;11.70;;;5.97;;
13085;SDS011;6609;49.882;8.664;2023-02-22T00:53:07;10.30;;;6.20;;
13085;SDS011;6609;49.882;8.664;2023-02-22T00:55:35;11.17;;;6.57;;
13085;SDS011;6609;49.882;8.664;2023-02-22T00:58:03;9.90;;;6.30;;
13085;SDS011;6609;49.882;8.664;2023-02-22T01:00:33;8.57;;;6.50;;
13085;SDS011;6609;49.882;8.664;2023-02-22T01:03:02;9.97;;;5.97;;
13085;SDS011;6609;49.882;8.664;2023-02-22T01:05:30;7.97;;;5.50;;
13085;SDS011;6609;49.882;8.664;2023-02-22T01:07:58;8.10;;;5.97;;
13085;SDS011;6609;49.882;8.664;2023-02-22T01:10:26;9.43;;;5.83;;
13085;SDS011;6609;49.882;8.664;2023-02-22T01:12:54;10.33;;;6.50;;
13085;SDS011;6609;49.882;8.664;2023-02-22T01:15:23;9.90;;;6.03;;
13085;SDS011;6609;49.882;8.664;2023-02-22T01:17:52;9.90;;;6.10;;
13085;SDS011;6609;49.882;8.664;2023-02-22T01:20:20;8.57;;;5.20;;
13085;SDS011;6609;49.882;8.664;2023-02-22T01:22:48;7.87;;;5.70;;
13085;SDS011;6609;49.882;8.664;2023-02-22T01:25:18;9.00;;;5.07;;
13085;SDS011;6609;49.882;8.664;2023-02-22T01:27:45;7.70;;;5.13;;
13085;SDS011;6609;49.882;8.664;2023-02-22T01:30:14;11.60;;;5.87;;
13085;SDS011;6609;49.882;8.664;2023-02-22T01:32:42;11.43;;;5.97;;
13085;SDS011;6609;49.882;8.664;2023-02-22T01:35:15;9.47;;;5.47;;
13085;SDS011;6609;49.882;8.664;2023-02-22T01:37:43;8.03;;;5.10;;
13085;SDS011;6609;49.882;8.664;2023-02-22T01:40:14;9.53;;;5.47;;
13085;SDS011;6609;49.882;8.664;2023-02-22T01:42:42;9.60;;;5.07;;
13085;SDS011;6609;49.882;8.664;2023-02-22T01:48:06;8.77;;;6.30;;
13085;SDS011;6609;49.882;8.664;2023-02-22T01:50:39;9.30;;;5.27;;
13085;SDS011;6609;49.882;8.664;2023-02-22T01:53:09;7.23;;;4.63;;
13085;SDS011;6609;49.882;8.664;2023-02-22T01:55:38;10.93;;;5.57;;
13085;SDS011;6609;49.882;8.664;2023-02-22T01:58:05;8.50;;;5.33;;
13085;SDS011;6609;49.882;8.664;2023-02-22T02:00:34;10.87;;;5.40;;
13085;SDS011;6609;49.882;8.664;2023-02-22T02:03:05;11.47;;;5.40;;
13085;SDS011;6609;49.882;8.664;2023-02-22T02:05:35;7.70;;;5.03;;
13085;SDS011;6609;49.882;8.664;2023-02-22T02:08:04;8.00;;;5.13;;
13085;SDS011;6609;49.882;8.664;2023-02-22T02:10:38;8.80;;;5.00;;
13085;SDS011;6609;49.882;8.664;2023-02-22T02:13:06;8.13;;;5.20;;
13085;SDS011;6609;49.882;8.664;2023-02-22T02:15:34;8.07;;;4.90;;
13085;SDS011;6609;49.882;8.664;2023-02-22T02:18:01;10.27;;;5.50;;
13085;SDS011;6609;49.882;8.664;2023-02-22T02:20:31;7.80;;;5.13;;
13085;SDS011;6609;49.882;8.664;2023-02-22T02:23:11;9.53;;;5.40;;
13085;SDS011;6609;49.882;8.664;2023-02-22T02:25:50;9.23;;;5.40;;
13085;SDS011;6609;49.882;8.664;2023-02-22T02:31:38;5.73;;;4.87;;
13085;SDS011;6609;49.882;8.664;2023-02-22T02:34:10;7.17;;;5.30;;
13085;SDS011;6609;49.882;8.664;2023-02-22T02:36:43;9.40;;;5.63;;
13085;SDS011;6609;49.882;8.664;2023-02-22T02:39:19;9.10;;;5.53;;
13085;SDS011;6609;49.882;8.664;2023-02-22T02:41:50;7.83;;;4.97;;
13085;SDS011;6609;49.882;8.664;2023-02-22T02:44:20;9.10;;;5.80;;
13085;SDS011;6609;49.882;8.664;2023-02-22T02:46:52;7.33;;;5.37;;
13085;SDS011;6609;49.882;8.664;2023-02-22T02:49:24;10.07;;;6.47;;
13085;SDS011;6609;49.882;8.664;2023-02-22T02:51:54;8.97;;;5.77;;
13085;SDS011;6609;49.882;8.664;2023-02-22T02:54:22;9.17;;;5.50;;
13085;SDS011;6609;49.882;8.664;2023-02-22T02:56:50;9.17;;;5.70;;
13085;SDS011;6609;49.882;8.664;2023-02-22T02:59:22;9.10;;;5.50;;
13085;SDS011;6609;49.882;8.664;2023-02-22T03:01:52;9.70;;;5.53;;
13085;SDS011;6609;49.882;8.664;2023-02-22T03:04:34;11.77;;;6.47;;
13085;SDS011;6609;49.882;8.664;2023-02-22T03:07:10;10.47;;;6.53;;
13085;SDS011;6609;49.882;8.664;2023-02-22T03:09:53;11.03;;;6.67;;
13085;SDS011;6609;49.882;8.664;2023-02-22T03:12:30;9.43;;;5.43;;
13085;SDS011;6609;49.882;8.664;2023-02-22T03:15:05;11.63;;;6.30;;
13085;SDS011;6609;49.882;8.664;2023-02-22T03:17:40;10.80;;;6.17;;
13085;SDS011;6609;49.882;8.664;2023-02-22T03:20:14;8.10;;;5.50;;
13085;SDS011;6609;49.882;8.664;2023-02-22T03:22:47;9.13;;;5.97;;
13085;SDS011;6609;49.882;8.664;2023-02-22T03:25:20;8.40;;;5.60;;
13085;SDS011;6609;49.882;8.664;2023-02-22T03:27:53;9.37;;;5.90;;
13085;SDS011;6609;49.882;8.664;2023-02-22T03:30:27;8.63;;;6.50;;
13085;SDS011;6609;49.882;8.664;2023-02-22T03:32:58;8.07;;;5.90;;
13085;SDS011;6609;49.882;8.664;2023-02-22T03:35:34;7.37;;;5.67;;
13085;SDS011;6609;49.882;8.664;2023-02-22T03:38:04;9.93;;;5.57;;
13085;SDS011;6609;49.882;8.664;2023-02-22T03:40:33;9.60;;;6.67;;
13085;SDS011;6609;49.882;8.664;2023-02-22T03:43:05;7.37;;;5.77;;
13085;SDS011;6609;49.882;8.664;2023-02-22T03:45:33;7.87;;;5.40;;
13085;SDS011;6609;49.882;8.664;2023-02-22T03:48:02;10.90;;;5.63;;
13085;SDS011;6609;49.882;8.664;2023-02-22T03:50:32;9.77;;;6.17;;
13085;SDS011;6609;49.882;8.664;2023-02-22T03:53:02;9.70;;;7.60;;
13085;SDS011;6609;49.882;8.664;2023-02-22T03:55:29;7.73;;;6.17;;
13085;SDS011;6609;49.882;8.664;2023-02-22T03:57:57;8.13;;;5.63;;
13085;SDS011;6609;49.882;8.664;2023-02-22T04:00:26;10.43;;;5.67;;
13085;SDS011;6609;49.882;8.664;2023-02-22T04:02:55;6.80;;;4.90;;
13085;SDS011;6609;49.882;8.664;2023-02-22T04:05:22;8.60;;;6.00;;
13085;SDS011;6609;49.882;8.664;2023-02-22T04:07:50;8.33;;;5.80;;
13085;SDS011;6609;49.882;8.664;2023-02-22T04:10:18;9.17;;;5.73;;
13085;SDS011;6609;49.882;8.664;2023-02-22T04:12:45;12.70;;;6.23;;
13085;SDS011;6609;49.882;8.664;2023-02-22T04:15:13;8.13;;;6.10;;
13085;SDS011;6609;49.882;8.664;2023-02-22T04:17:40;8.43;;;5.77;;
13085;SDS011;6609;49.882;8.664;2023-02-22T04:20:08;8.87;;;6.17;;
13085;SDS011;6609;49.882;8.664;2023-02-22T04:22:36;8.23;;;5.80;;
13085;SDS011;6609;49.882;8.664;2023-02-22T04:25:03;8.43;;;5.60;;
13085;SDS011;6609;49.882;8.664;2023-02-22T04:27:32;11.33;;;6.80;;
13085;SDS011;6609;49.882;8.664;2023-02-22T04:29:59;9.90;;;6.03;;
13085;SDS011;6609;49.882;8.664;2023-02-22T04:32:26;9.40;;;6.60;;
13085;SDS011;6609;49.882;8.664;2023-02-22T04:34:53;9.53;;;5.57;;
13085;SDS011;6609;49.882;8.664;2023-02-22T04:37:20;8.70;;;5.90;;
13085;SDS011;6609;49.882;8.664;2023-02-22T04:39:47;7.50;;;5.50;;
13085;SDS011;6609;49.882;8.664;2023-02-22T04:42:13;8.40;;;5.67;;
13085;SDS011;6609;49.882;8.664;2023-02-22T04:44:42;13.23;;;6.57;;
13085;SDS011;6609;49.882;8.664;2023-02-22T04:47:08;9.53;;;5.47;;
13085;SDS011;6609;49.882;8.664;2023-02-22T04:49:35;9.80;;;6.27;;
13085;SDS011;6609;49.882;8.664;2023-02-22T04:52:02;12.03;;;5.97;;
13085;SDS011;6609;49.882;8.664;2023-02-22T04:54:29;10.73;;;6.57;;
13085;SDS011;6609;49.882;8.664;2023-02-22T04:56:56;8.67;;;5.93;;
13085;SDS011;6609;49.882;8.664;2023-02-22T04:59:23;10.77;;;6.50;;
13085;SDS011;6609;49.882;8.664;2023-02-22T05:01:51;8.70;;;5.40;;
13085;SDS011;6609;49.882;8.664;2023-02-22T05:04:18;7.80;;;5.80;;
13085;SDS011;6609;49.882;8.664;2023-02-22T05:06:46;8.70;;;5.23;;
13085;SDS011;6609;49.882;8.664;2023-02-22T05:09:13;10.27;;;6.07;;
13085;SDS011;6609;49.882;8.664;2023-02-22T05:11:40;8.63;;;5.90;;
13085;SDS011;6609;49.882;8.664;2023-02-22T05:14:07;12.67;;;6.60;;
13085;SDS011;6609;49.882;8.664;2023-02-22T05:16:34;13.00;;;6.40;;
13085;SDS011;6609;49.882;8.664;2023-02-22T05:19:02;8.50;;;6.30;;
13085;SDS011;6609;49.882;8.664;2023-02-22T05:21:29;8.47;;;6.03;;
13085;SDS011;6609;49.882;8.664;2023-02-22T05:23:56;12.17;;;6.60;;
13085;SDS011;6609;49.882;8.664;2023-02-22T05:26:23;8.07;;;6.10;;
13085;SDS011;6609;49.882;8.664;2023-02-22T05:28:50;9.83;;;5.77;;
13085;SDS011;6609;49.882;8.664;2023-02-22T05:31:17;7.80;;;5.60;;
13085;SDS011;6609;49.882;8.664;2023-02-22T05:33:44;9.13;;;6.00;;
13085;SDS011;6609;49.882;8.664;2023-02-22T05:36:12;8.10;;;5.53;;
13085;SDS011;6609;49.882;8.664;2023-02-22T05:38:40;9.53;;;5.87;;
13085;SDS011;6609;49.882;8.664;2023-02-22T05:41:08;12.03;;;6.43;;
13085;SDS011;6609;49.882;8.664;2023-02-22T05:43:36;8.00;;;5.70;;
13085;SDS011;6609;49.882;8.664;2023-02-22T05:46:03;12.40;;;5.17;;
13085;SDS011;6609;49.882;8.664;2023-02-22T05:48:30;10.43;;;6.07;;
13085;SDS011;6609;49.882;8.664;2023-02-22T05:50:57;8.50;;;5.50;;
13085;SDS011;6609;49.882;8.664;2023-02-22T05:53:25;8.60;;;5.77;;
13085;SDS011;6609;49.882;8.664;2023-02-22T05:55:52;8.07;;;4.93;;
13085;SDS011;6609;49.882;8.664;2023-02-22T05:58:19;7.50;;;5.07;;
13085;SDS011;6609;49.882;8.664;2023-02-22T06:00:47;7.53;;;4.83;;
13085;SDS011;6609;49.882;8.664;2023-02-22T06:03:14;9.27;;;5.60;;
13085;SDS011;6609;49.882;8.664;2023-02-22T06:05:41;12.67;;;5.80;;
13085;SDS011;6609;49.882;8.664;2023-02-22T06:08:07;10.75;;;6.03;;
13085;SDS011;6609;49.882;8.664;2023-02-22T06:10:36;11.30;;;6.13;;
13085;SDS011;6609;49.882;8.664;2023-02-22T06:13:03;9.67;;;6.20;;
13085;SDS011;6609;49.882;8.664;2023-02-22T06:15:31;14.70;;;5.53;;
13085;SDS011;6609;49.882;8.664;2023-02-22T06:17:58;9.20;;;5.50;;
13085;SDS011;6609;49.882;8.664;2023-02-22T06:20:27;9.20;;;5.70;;
13085;SDS011;6609;49.882;8.664;2023-02-22T06:22:55;10.60;;;5.87;;
13085;SDS011;6609;49.882;8.664;2023-02-22T06:25:23;15.63;;;6.17;;
13085;SDS011;6609;49.882;8.664;2023-02-22T06:27:52;11.13;;;5.90;;
13085;SDS011;6609;49.882;8.664;2023-02-22T06:30:20;9.30;;;5.70;;
13085;SDS011;6609;49.882;8.664;2023-02-22T06:32:47;9.00;;;5.83;;
13085;SDS011;6609;49.882;8.664;2023-02-22T06:35:14;8.93;;;5.75;;
13085;SDS011;6609;49.882;8.664;2023-02-22T06:37:42;9.40;;;6.05;;
13085;SDS011;6609;49.882;8.664;2023-02-22T06:40:09;7.80;;;5.80;;
13085;SDS011;6609;49.882;8.664;2023-02-22T06:42:37;9.23;;;6.23;;
13085;SDS011;6609;49.882;8.664;2023-02-22T06:45:05;9.73;;;5.73;;
13085;SDS011;6609;49.882;8.664;2023-02-22T06:47:36;10.07;;;6.43;;
13085;SDS011;6609;49.882;8.664;2023-02-22T06:50:03;8.93;;;5.63;;
13085;SDS011;6609;49.882;8.664;2023-02-22T06:52:30;10.10;;;6.40;;
13085;SDS011;6609;49.882;8.664;2023-02-22T06:54:57;9.63;;;5.93;;
13085;SDS011;6609;49.882;8.664;2023-02-22T06:57:24;8.48;;;5.55;;
13085;SDS011;6609;49.882;8.664;2023-02-22T06:59:51;10.13;;;5.70;;
13085;SDS011;6609;49.882;8.664;2023-02-22T07:02:19;11.10;;;5.53;;
13085;SDS011;6609;49.882;8.664;2023-02-22T07:04:46;9.60;;;5.30;;
13085;SDS011;6609;49.882;8.664;2023-02-22T07:07:13;8.47;;;5.87;;
13085;SDS011;6609;49.882;8.664;2023-02-22T07:09:40;8.33;;;5.20;;
13085;SDS011;6609;49.882;8.664;2023-02-22T07:12:07;8.90;;;4.97;;
13085;SDS011;6609;49.882;8.664;2023-02-22T07:14:34;10.47;;;5.27;;
13085;SDS011;6609;49.882;8.664;2023-02-22T07:17:01;9.07;;;5.50;;
13085;SDS011;6609;49.882;8.664;2023-02-22T07:19:29;7.63;;;5.77;;
13085;SDS011;6609;49.882;8.664;2023-02-22T07:21:56;8.00;;;5.40;;
13085;SDS011;6609;49.882;8.664;2023-02-22T07:24:23;7.47;;;5.23;;
13085;SDS011;6609;49.882;8.664;2023-02-22T07:26:52;7.23;;;5.60;;
13085;SDS011;6609;49.882;8.664;2023-02-22T07:29:19;11.17;;;5.20;;
13085;SDS011;6609;49.882;8.664;2023-02-22T07:31:46;10.10;;;5.97;;
13085;SDS011;6609;49.882;8.664;2023-02-22T07:34:14;9.47;;;5.60;;
13085;SDS011;6609;49.882;8.664;2023-02-22T07:36:42;9.67;;;6.80;;
13085;SDS011;6609;49.882;8.664;2023-02-22T07:39:09;12.60;;;6.63;;
13085;SDS011;6609;49.882;8.664;2023-02-22T07:41:35;14.33;;;6.17;;
13085;SDS011;6609;49.882;8.664;2023-02-22T07:44:02;9.50;;;6.20;;
13085;SDS011;6609;49.882;8.664;2023-02-22T07:46:29;9.30;;;6.23;;
13085;SDS011;6609;49.882;8.664;2023-02-22T07:48:56;11.60;;;6.03;;
13085;SDS011;6609;49.882;8.664;2023-02-22T07:51:23;13.60;;;6.93;;
13085;SDS011;6609;49.882;8.664;2023-02-22T07:53:52;11.57;;;7.23;;
13085;SDS011;6609;49.882;8.664;2023-02-22T07:56:19;12.37;;;7.37;;
13085;SDS011;6609;49.882;8.664;2023-02-22T07:58:46;17.00;;;9.20;;
13085;SDS011;6609;49.882;8.664;2023-02-22T08:01:13;18.57;;;8.40;;
13085;SDS011;6609;49.882;8.664;2023-02-22T08:03:39;14.43;;;8.77;;
13085;SDS011;6609;49.882;8.664;2023-02-22T08:06:07;16.40;;;8.27;;
13085;SDS011;6609;49.882;8.664;2023-02-22T08:08:34;17.27;;;7.80;;
13085;SDS011;6609;49.882;8.664;2023-02-22T08:11:02;14.90;;;8.77;;
13085;SDS011;6609;49.882;8.664;2023-02-22T08:13:29;12.73;;;8.83;;
13085;SDS011;6609;49.882;8.664;2023-02-22T08:15:56;15.43;;;8.67;;
13085;SDS011;6609;49.882;8.664;2023-02-22T08:18:24;19.23;;;8.73;;
13085;SDS011;6609;49.882;8.664;2023-02-22T08:20:51;16.63;;;10.17;;
13085;SDS011;6609;49.882;8.664;2023-02-22T08:23:19;16.33;;;9.07;;
13085;SDS011;6609;49.882;8.664;2023-02-22T08:25:47;14.57;;;8.97;;
13085;SDS011;6609;49.882;8.664;2023-02-22T08:28:16;14.37;;;9.07;;
13085;SDS011;6609;49.882;8.664;2023-02-22T08:30:45;17.93;;;9.63;;
13085;SDS011;6609;49.882;8.664;2023-02-22T08:33:13;16.40;;;10.47;;
13085;SDS011;6609;49.882;8.664;2023-02-22T08:35:43;13.03;;;9.47;;
13085;SDS011;6609;49.882;8.664;2023-02-22T08:38:14;17.40;;;9.10;;
13085;SDS011;6609;49.882;8.664;2023-02-22T08:40:42;15.60;;;9.20;;
13085;SDS011;6609;49.882;8.664;2023-02-22T08:43:09;11.33;;;8.13;;
13085;SDS011;6609;49.882;8.664;2023-02-22T08:45:38;16.73;;;9.80;;
13085;SDS011;6609;49.882;8.664;2023-02-22T08:48:05;18.00;;;9.10;;
13085;SDS011;6609;49.882;8.664;2023-02-22T08:50:33;16.30;;;8.83;;
13085;SDS011;6609;49.882;8.664;2023-02-22T08:53:01;13.33;;;9.20;;
13085;SDS011;6609;49.882;8.664;2023-02-22T08:55:30;14.87;;;10.17;;
13085;SDS011;6609;49.882;8.664;2023-02-22T08:57:58;15.73;;;9.87;;
13085;SDS011;6609;49.882;8.664;2023-02-22T09:00:27;14.67;;;9.30;;
13085;SDS011;6609;49.882;8.664;2023-02-22T09:02:58;13.97;;;8.77;;
13085;SDS011;6609;49.882;8.664;2023-02-22T09:05:25;15.73;;;10.03;;
13085;SDS011;6609;49.882;8.664;2023-02-22T09:07:52;15.20;;;10.57;;
13085;SDS011;6609;49.882;8.664;2023-02-22T09:10:20;14.70;;;9.57;;
13085;SDS011;6609;49.882;8.664;2023-02-22T09:12:48;15.53;;;10.70;;
13085;SDS011;6609;49.882;8.664;2023-02-22T09:15:15;14.93;;;10.23;;
13085;SDS011;6609;49.882;8.664;2023-02-22T09:17:43;16.67;;;9.93;;
13085;SDS011;6609;49.882;8.664;2023-02-22T09:20:12;14.57;;;10.87;;
13085;SDS011;6609;49.882;8.664;2023-02-22T09:22:39;16.03;;;10.07;;
13085;SDS011;6609;49.882;8.664;2023-02-22T09:25:06;18.10;;;10.83;;
13085;SDS011;6609;49.882;8.664;2023-02-22T09:27:33;16.20;;;11.60;;
13085;SDS011;6609;49.882;8.664;2023-02-22T09:30:00;18.90;;;11.83;;
13085;SDS011;6609;49.882;8.664;2023-02-22T09:32:27;16.83;;;10.90;;
13085;SDS011;6609;49.882;8.664;2023-02-22T09:34:54;14.23;;;9.90;;
13085;SDS011;6609;49.882;8.664;2023-02-22T09:37:22;17.27;;;10.60;;
13085;SDS011;6609;49.882;8.664;2023-02-22T09:39:49;14.47;;;9.67;;
13085;SDS011;6609;49.882;8.664;2023-02-22T09:42:17;17.50;;;10.13;;
13085;SDS011;6609;49.882;8.664;2023-02-22T09:44:54;15.00;;;9.87;;
13085;SDS011;6609;49.882;8.664;2023-02-22T09:47:33;16.90;;;11.50;;
13085;SDS011;6609;49.882;8.664;2023-02-22T09:50:04;14.57;;;10.43;;
13085;SDS011;6609;49.882;8.664;2023-02-22T09:52:42;14.57;;;10.57;;
13085;SDS011;6609;49.882;8.664;2023-02-22T09:55:19;18.83;;;10.67;;
13085;SDS011;6609;49.882;8.664;2023-02-22T09:57:55;19.00;;;9.83;;
13085;SDS011;6609;49.882;8.664;2023-02-22T10:00:26;19.77;;;10.83;;
13085;SDS011;6609;49.882;8.664;2023-02-22T10:02:59;16.47;;;10.13;;
13085;SDS011;6609;49.882;8.664;2023-02-22T10:05:40;14.90;;;10.37;;
13085;SDS011;6609;49.882;8.664;2023-02-22T10:08:12;14.73;;;10.90;;
13085;SDS011;6609;49.882;8.664;2023-02-22T10:10:43;16.60;;;11.17;;
13085;SDS011;6609;49.882;8.664;2023-02-22T10:13:18;14.73;;;10.83;;
13085;SDS011;6609;49.882;8.664;2023-02-22T10:15:53;17.47;;;11.23;;
13085;SDS011;6609;49.882;8.664;2023-02-22T10:21:31;16.63;;;11.83;;
13085;SDS011;6609;49.882;8.664;2023-02-22T10:24:09;15.23;;;10.80;;
13085;SDS011;6609;49.882;8.664;2023-02-22T10:26:44;14.57;;;11.37;;
13085;SDS011;6609;49.882;8.664;2023-02-22T10:29:13;13.87;;;11.43;;
13085;SDS011;6609;49.882;8.664;2023-02-22T10:31:47;14.43;;;10.87;;
13085;SDS011;6609;49.882;8.664;2023-02-22T10:34:20;16.97;;;11.47;;
13085;SDS011;6609;49.882;8.664;2023-02-22T10:36:50;13.17;;;10.77;;
13085;SDS011;6609;49.882;8.664;2023-02-22T10:39:24;16.93;;;11.77;;
13085;SDS011;6609;49.882;8.664;2023-02-22T10:41:54;14.77;;;11.93;;
13085;SDS011;6609;49.882;8.664;2023-02-22T10:44:22;16.30;;;12.50;;
13085;SDS011;6609;49.882;8.664;2023-02-22T10:46:49;19.10;;;12.00;;
13085;SDS011;6609;49.882;8.664;2023-02-22T10:49:17;14.37;;;11.40;;
13085;SDS011;6609;49.882;8.664;2023-02-22T10:51:47;15.00;;;11.77;;
13085;SDS011;6609;49.882;8.664;2023-02-22T10:54:27;14.57;;;12.17;;
13085;SDS011;6609;49.882;8.664;2023-02-22T10:56:57;15.83;;;11.73;;
13085;SDS011;6609;49.882;8.664;2023-02-22T10:59:29;17.30;;;11.87;;
13085;SDS011;6609;49.882;8.664;2023-02-22T11:01:57;19.23;;;12.37;;
13085;SDS011;6609;49.882;8.664;2023-02-22T11:04:24;18.57;;;11.77;;
13085;SDS011;6609;49.882;8.664;2023-02-22T11:07:05;16.53;;;12.53;;
13085;SDS011;6609;49.882;8.664;2023-02-22T11:09:46;15.03;;;12.23;;
13085;SDS011;6609;49.882;8.664;2023-02-22T11:12:16;17.77;;;11.50;;
13085;SDS011;6609;49.882;8.664;2023-02-22T11:14:44;19.47;;;12.33;;
13085;SDS011;6609;49.882;8.664;2023-02-22T11:17:13;13.37;;;10.50;;
13085;SDS011;6609;49.882;8.664;2023-02-22T11:19:45;14.73;;;11.80;;
13085;SDS011;6609;49.882;8.664;2023-02-22T11:22:17;14.17;;;11.27;;
13085;SDS011;6609;49.882;8.664;2023-02-22T11:24:49;13.37;;;10.47;;
13085;SDS011;6609;49.882;8.664;2023-02-22T11:27:30;15.20;;;10.50;;
13085;SDS011;6609;49.882;8.664;2023-02-22T11:30:19;13.70;;;10.70;;
13085;SDS011;6609;49.882;8.664;2023-02-22T11:32:53;14.07;;;11.07;;
13085;SDS011;6609;49.882;8.664;2023-02-22T11:35:30;14.87;;;10.30;;
13085;SDS011;6609;49.882;8.664;2023-02-22T11:38:10;15.53;;;11.30;;
13085;SDS011;6609;49.882;8.664;2023-02-22T11:40:42;12.50;;;10.80;;
13085;SDS011;6609;49.882;8.664;2023-02-22T11:43:13;13.30;;;10.97;;
13085;SDS011;6609;49.882;8.664;2023-02-22T11:45:54;13.20;;;10.67;;
13085;SDS011;6609;49.882;8.664;2023-02-22T11:48:27;12.87;;;11.23;;
13085;SDS011;6609;49.882;8.664;2023-02-22T11:50:57;13.77;;;10.63;;
13085;SDS011;6609;49.882;8.664;2023-02-22T11:53:40;18.80;;;11.37;;
13085;SDS011;6609;49.882;8.664;2023-02-22T11:56:21;16.23;;;11.10;;
13085;SDS011;6609;49.882;8.664;2023-02-22T11:58:52;15.37;;;11.60;;
13085;SDS011;6609;49.882;8.664;2023-02-22T12:01:28;14.77;;;11.63;;
13085;SDS011;6609;49.882;8.664;2023-02-22T12:06:49;17.03;;;11.73;;
13085;SDS011;6609;49.882;8.664;2023-02-22T12:09:24;15.83;;;11.43;;
13085;SDS011;6609;49.882;8.664;2023-02-22T12:12:05;14.90;;;11.17;;
13085;SDS011;6609;49.882;8.664;2023-02-22T12:14:43;15.40;;;10.97;;
13085;SDS011;6609;49.882;8.664;2023-02-22T12:17:25;14.30;;;10.90;;
13085;SDS011;6609;49.882;8.664;2023-02-22T12:20:04;15.67;;;11.17;;
13085;SDS011;6609;49.882;8.664;2023-02-22T12:22:38;15.67;;;11.40;;
13085;SDS011;6609;49.882;8.664;2023-02-22T12:25:19;15.87;;;11.03;;
13085;SDS011;6609;49.882;8.664;2023-02-22T12:27:51;12.90;;;11.50;;
13085;SDS011;6609;49.882;8.664;2023-02-22T12:30:23;16.07;;;12.30;;
13085;SDS011;6609;49.882;8.664;2023-02-22T12:32:53;15.87;;;11.77;;
13085;SDS011;6609;49.882;8.664;2023-02-22T12:35:23;15.90;;;11.03;;
13085;SDS011;6609;49.882;8.664;2023-02-22T12:37:55;16.23;;;11.17;;
13085;SDS011;6609;49.882;8.664;2023-02-22T12:40:30;15.33;;;11.00;;
13085;SDS011;6609;49.882;8.664;2023-02-22T12:43:03;16.97;;;11.53;;
13085;SDS011;6609;49.882;8.664;2023-02-22T12:45:37;15.57;;;10.13;;
13085;SDS011;6609;49.882;8.664;2023-02-22T12:48:16;15.43;;;10.37;;
13085;SDS011;6609;49.882;8.664;2023-02-22T12:50:51;16.03;;;11.30;;
13085;SDS011;6609;49.882;8.664;2023-02-22T12:53:22;12.80;;;9.83;;
13085;SDS011;6609;49.882;8.664;2023-02-22T12:55:54;17.10;;;10.20;;
13085;SDS011;6609;49.882;8.664;2023-02-22T12:58:31;12.43;;;9.30;;
13085;SDS011;6609;49.882;8.664;2023-02-22T13:01:02;13.17;;;9.43;;
13085;SDS011;6609;49.882;8.664;2023-02-22T13:03:34;13.13;;;9.90;;
13085;SDS011;6609;49.882;8.664;2023-02-22T13:06:13;14.03;;;9.40;;
13085;SDS011;6609;49.882;8.664;2023-02-22T13:08:55;13.93;;;9.47;;
13085;SDS011;6609;49.882;8.664;2023-02-22T13:11:32;14.30;;;9.47;;
13085;SDS011;6609;49.882;8.664;2023-02-22T13:14:13;15.73;;;11.13;;
13085;SDS011;6609;49.882;8.664;2023-02-22T13:16:56;18.70;;;10.73;;
13085;SDS011;6609;49.882;8.664;2023-02-22T13:19:33;15.50;;;9.80;;
13085;SDS011;6609;49.882;8.664;2023-02-22T13:22:08;15.37;;;9.77;;
13085;SDS011;6609;49.882;8.664;2023-02-22T13:24:44;15.80;;;10.57;;
13085;SDS011;6609;49.882;8.664;2023-02-22T13:27:19;12.53;;;9.57;;
13085;SDS011;6609;49.882;8.664;2023-02-22T13:29:52;13.77;;;9.37;;
13085;SDS011;6609;49.882;8.664;2023-02-22T13:32:27;14.80;;;10.30;;
13085;SDS011;6609;49.882;8.664;2023-02-22T13:35:08;15.20;;;10.63;;
13085;SDS011;6609;49.882;8.664;2023-02-22T13:37:51;16.40;;;10.57;;
13085;SDS011;6609;49.882;8.664;2023-02-22T13:46:31;17.03;;;11.40;;
13085;SDS011;6609;49.882;8.664;2023-02-22T13:49:21;14.30;;;11.07;;
13085;SDS011;6609;49.882;8.664;2023-02-22T13:52:05;17.53;;;11.67;;
13085;SDS011;6609;49.882;8.664;2023-02-22T13:54:36;16.03;;;10.60;;
13085;SDS011;6609;49.882;8.664;2023-02-22T14:00:17;17.23;;;11.67;;
13085;SDS011;6609;49.882;8.664;2023-02-22T14:03:06;17.00;;;11.20;;
13085;SDS011;6609;49.882;8.664;2023-02-22T14:05:54;16.53;;;11.10;;
13085;SDS011;6609;49.882;8.664;2023-02-22T14:08:40;16.33;;;10.60;;
13085;SDS011;6609;49.882;8.664;2023-02-22T14:14:20;15.90;;;10.30;;
13085;SDS011;6609;49.882;8.664;2023-02-22T14:19:43;16.10;;;10.50;;
13085;SDS011;6609;49.882;8.664;2023-02-22T14:22:26;15.83;;;11.03;;
13085;SDS011;6609;49.882;8.664;2023-02-22T14:24:54;22.20;;;11.93;;
13085;SDS011;6609;49.882;8.664;2023-02-22T14:27:22;17.57;;;10.87;;
13085;SDS011;6609;49.882;8.664;2023-02-22T14:29:49;16.30;;;10.50;;
13085;SDS011;6609;49.882;8.664;2023-02-22T14:32:18;15.17;;;11.13;;
13085;SDS011;6609;49.882;8.664;2023-02-22T14:34:48;15.87;;;11.60;;
13085;SDS011;6609;49.882;8.664;2023-02-22T14:37:18;15.00;;;10.23;;
13085;SDS011;6609;49.882;8.664;2023-02-22T14:39:49;18.73;;;11.33;;
13085;SDS011;6609;49.882;8.664;2023-02-22T14:42:21;16.73;;;10.90;;
13085;SDS011;6609;49.882;8.664;2023-02-22T14:44:56;14.00;;;9.90;;
13085;SDS011;6609;49.882;8.664;2023-02-22T14:47:27;17.83;;;9.47;;
13085;SDS011;6609;49.882;8.664;2023-02-22T14:50:05;19.73;;;9.83;;
13085;SDS011;6609;49.882;8.664;2023-02-22T14:52:39;14.73;;;10.30;;
13085;SDS011;6609;49.882;8.664;2023-02-22T14:55:13;15.47;;;9.80;;
13085;SDS011;6609;49.882;8.664;2023-02-22T14:57:51;15.07;;;10.30;;
13085;SDS011;6609;49.882;8.664;2023-02-22T15:00:26;13.13;;;9.67;;
13085;SDS011;6609;49.882;8.664;2023-02-22T15:03:01;15.80;;;9.10;;
13085;SDS011;6609;49.882;8.664;2023-02-22T15:05:35;15.57;;;9.70;;
13085;SDS011;6609;49.882;8.664;2023-02-22T15:08:04;17.03;;;9.27;;
13085;SDS011;6609;49.882;8.664;2023-02-22T15:10:38;14.70;;;9.27;;
13085;SDS011;6609;49.882;8.664;2023-02-22T15:13:12;16.20;;;9.93;;
13085;SDS011;6609;49.882;8.664;2023-02-22T15:15:40;17.17;;;9.87;;
13085;SDS011;6609;49.882;8.664;2023-02-22T15:18:16;14.07;;;9.17;;
13085;SDS011;6609;49.882;8.664;2023-02-22T15:20:48;15.27;;;9.93;;
13085;SDS011;6609;49.882;8.664;2023-02-22T15:23:20;16.23;;;10.20;;
13085;SDS011;6609;49.882;8.664;2023-02-22T15:25:49;16.10;;;10.47;;
13085;SDS011;6609;49.882;8.664;2023-02-22T15:28:17;15.50;;;9.57;;
13085;SDS011;6609;49.882;8.664;2023-02-22T15:30:44;15.00;;;10.03;;
13085;SDS011;6609;49.882;8.664;2023-02-22T15:33:12;16.80;;;9.80;;
13085;SDS011;6609;49.882;8.664;2023-02-22T15:35:41;14.90;;;9.60;;